createdAt,value
2022-08-14T00:01:24.062Z,100.00
2022-08-14T00:03:50.981Z,100.00
2022-08-14T00:06:28.475Z,100.00
2022-08-14T00:08:59.313Z,100.00
2022-08-14T00:11:28.800Z,100.00
2022-08-14T00:13:58.466Z,100.00
2022-08-14T00:16:40.816Z,100.00
2022-08-14T00:19:18.660Z,100.00
2022-08-14T00:21:46.978Z,100.00
2022-08-14T00:24:13.667Z,100.00
2022-08-14T00:26:50.002Z,100.00
2022-08-14T00:29:21.302Z,100.00
2022-08-14T00:31:54.535Z,100.00
2022-08-14T00:34:36.777Z,100.00
2022-08-14T00:37:08.998Z,100.00
2022-08-14T00:39:35.489Z,100.00
2022-08-14T00:42:03.409Z,100.00
2022-08-14T00:44:32.937Z,100.00
2022-08-14T00:47:02.545Z,100.00
2022-08-14T00:49:30.052Z,100.00
2022-08-14T00:51:57.002Z,100.00
2022-08-14T00:54:25.064Z,100.00
2022-08-14T00:56:55.662Z,100.00
2022-08-14T00:59:24.955Z,100.00
2022-08-14T01:01:53.882Z,100.00
2022-08-14T01:04:37.963Z,100.00
2022-08-14T01:07:10.042Z,100.00
2022-08-14T01:09:37.589Z,100.00
2022-08-14T01:12:06.400Z,100.00
2022-08-14T01:14:34.739Z,100.00
2022-08-14T01:20:01.930Z,100.00
2022-08-14T01:22:31.518Z,100.00
2022-08-14T01:24:58.109Z,100.00
2022-08-14T01:27:25.233Z,100.00
2022-08-14T01:30:03.332Z,100.00
2022-08-14T01:32:37.402Z,100.00
2022-08-14T01:35:18.334Z,100.00
2022-08-14T01:37:56.158Z,100.00
2022-08-14T01:40:25.593Z,100.00
2022-08-14T01:42:59.878Z,100.00
2022-08-14T01:45:26.411Z,100.00
2022-08-14T01:48:03.463Z,100.00
2022-08-14T01:50:30.615Z,100.00
2022-08-14T01:53:01.220Z,100.00
2022-08-14T01:55:31.219Z,100.00
2022-08-14T01:58:18.212Z,100.00
2022-08-14T02:00:45.005Z,100.00
2022-08-14T02:03:16.161Z,100.00
2022-08-14T02:05:43.257Z,100.00
2022-08-14T02:08:10.694Z,100.00
2022-08-14T02:10:46.936Z,100.00
2022-08-14T02:13:17.412Z,100.00
2022-08-14T02:15:44.981Z,100.00
2022-08-14T02:18:15.291Z,100.00
2022-08-14T02:20:42.193Z,100.00
2022-08-14T02:23:09.145Z,100.00
2022-08-14T02:25:36.313Z,100.00
2022-08-14T02:28:25.584Z,100.00
2022-08-14T02:30:52.453Z,100.00
2022-08-14T02:33:19.342Z,100.00
2022-08-14T02:35:53.042Z,100.00
2022-08-14T02:38:30.338Z,100.00
2022-08-14T02:41:01.139Z,100.00
2022-08-14T02:43:36.412Z,100.00
2022-08-14T02:46:05.867Z,100.00
2022-08-14T02:49:01.830Z,100.00
2022-08-14T02:51:21.254Z,100.00
2022-08-14T02:53:49.343Z,100.00
2022-08-14T02:56:30.962Z,100.00
2022-08-14T02:59:08.217Z,100.00
2022-08-14T03:01:43.401Z,100.00
2022-08-14T03:04:20.558Z,100.00
2022-08-14T03:06:57.357Z,100.00
2022-08-14T03:09:42.380Z,100.00
2022-08-14T03:12:31.741Z,100.00
2022-08-14T03:15:02.678Z,100.00
2022-08-14T03:17:31.586Z,100.00
2022-08-14T03:20:07.726Z,100.00
2022-08-14T03:22:38.155Z,100.00
2022-08-14T03:25:08.523Z,100.00
2022-08-14T03:27:48.475Z,100.00
2022-08-14T03:30:23.678Z,100.00
2022-08-14T03:32:50.148Z,100.00
2022-08-14T03:35:18.199Z,100.00
2022-08-14T03:39:12.796Z,100.00
2022-08-14T03:40:31.050Z,100.00
2022-08-14T03:42:57.488Z,100.00
2022-08-14T03:45:34.464Z,100.00
2022-08-14T03:48:30.245Z,100.00
2022-08-14T03:50:57.913Z,100.00
2022-08-14T03:53:26.264Z,100.00
2022-08-14T03:55:56.065Z,100.00
2022-08-14T03:58:35.163Z,100.00
2022-08-14T04:01:04.717Z,100.00
2022-08-14T04:03:33.175Z,100.00
2022-08-14T04:06:04.784Z,100.00
2022-08-14T04:08:36.066Z,100.00
2022-08-14T04:11:02.790Z,100.00
2022-08-14T04:13:35.386Z,100.00
2022-08-14T04:16:06.898Z,100.00
2022-08-14T04:18:43.828Z,100.00
2022-08-14T04:21:12.387Z,100.00
2022-08-14T04:23:39.881Z,100.00
2022-08-14T04:26:14.215Z,100.00
2022-08-14T04:29:06.741Z,100.00
2022-08-14T04:32:58.211Z,100.00
2022-08-14T04:34:20.635Z,100.00
2022-08-14T04:37:08.867Z,100.00
2022-08-14T04:39:57.356Z,100.00
2022-08-14T04:42:47.241Z,100.00
2022-08-14T04:45:18.667Z,100.00
2022-08-14T04:48:03.714Z,100.00
2022-08-14T04:50:37.985Z,100.00
2022-08-14T04:53:12.919Z,100.00
2022-08-14T04:55:41.166Z,100.00
2022-08-14T04:58:09.526Z,100.00
2022-08-14T05:00:50.842Z,100.00
2022-08-14T05:03:20.950Z,100.00
2022-08-14T05:05:54.532Z,100.00
2022-08-14T05:08:31.691Z,100.00
2022-08-14T05:11:11.888Z,100.00
2022-08-14T05:14:08.265Z,100.00
2022-08-14T05:16:29.330Z,100.00
2022-08-14T05:19:24.664Z,100.00
2022-08-14T05:21:59.303Z,100.00
2022-08-14T05:24:29.321Z,100.00
2022-08-14T05:26:56.866Z,100.00
2022-08-14T05:29:26.306Z,100.00
2022-08-14T05:31:57.394Z,100.00
2022-08-14T05:34:31.716Z,100.00
2022-08-14T05:37:02.427Z,100.00
2022-08-14T05:39:29.932Z,100.00
2022-08-14T05:41:57.458Z,100.00
2022-08-14T05:44:27.890Z,100.00
2022-08-14T05:46:56.772Z,100.00
2022-08-14T05:49:23.292Z,100.00
2022-08-14T05:51:59.644Z,100.00
2022-08-14T05:54:28.734Z,100.00
2022-08-14T05:57:05.428Z,100.00
2022-08-14T05:59:39.119Z,100.00
2022-08-14T06:02:11.033Z,100.00
2022-08-14T06:04:39.022Z,100.00
2022-08-14T06:07:06.184Z,100.00
2022-08-14T06:09:35.919Z,100.00
2022-08-14T06:12:10.661Z,100.00
2022-08-14T06:14:39.225Z,100.00
2022-08-14T06:17:06.717Z,100.00
2022-08-14T06:19:33.295Z,100.00
2022-08-14T06:21:59.858Z,100.00
2022-08-14T06:24:27.132Z,100.00
2022-08-14T06:26:56.680Z,100.00
2022-08-14T06:29:32.457Z,100.00
2022-08-14T06:32:37.716Z,100.00
2022-08-14T06:35:02.915Z,100.00
2022-08-14T06:37:57.199Z,100.00
2022-08-14T06:40:29.667Z,100.00
2022-08-14T06:43:03.297Z,100.00
2022-08-14T06:45:35.081Z,96.93
2022-08-14T06:48:06.077Z,95.41
2022-08-14T06:50:39.038Z,93.32
2022-08-14T06:53:05.598Z,93.77
2022-08-14T06:55:32.231Z,92.74
2022-08-14T06:57:58.969Z,92.10
2022-08-14T07:00:30.590Z,91.31
2022-08-14T07:03:17.156Z,90.89
2022-08-14T07:05:58.052Z,83.59
2022-08-14T07:08:31.378Z,81.39
2022-08-14T07:11:03.858Z,80.73
2022-08-14T07:13:31.096Z,80.37
2022-08-14T07:15:58.890Z,78.89
2022-08-14T07:18:28.776Z,78.92
2022-08-14T07:20:56.404Z,77.88
2022-08-14T07:23:24.131Z,76.31
2022-08-14T07:25:58.256Z,77.15
2022-08-14T07:28:31.956Z,77.80
2022-08-14T07:31:05.172Z,75.32
2022-08-14T07:33:50.759Z,71.04
2022-08-14T07:36:30.112Z,71.28
2022-08-14T07:39:12.495Z,71.94
2022-08-14T07:41:42.475Z,69.60
2022-08-14T07:44:29.635Z,69.97
2022-08-14T07:46:57.751Z,68.45
2022-08-14T07:49:24.605Z,66.81
2022-08-14T07:51:51.155Z,65.00
2022-08-14T07:54:23.241Z,64.25
2022-08-14T07:57:00.157Z,64.44
2022-08-14T07:59:41.937Z,63.69
2022-08-14T08:02:19.498Z,61.57
2022-08-14T08:04:52.982Z,60.65
2022-08-14T08:07:22.148Z,59.39
2022-08-14T08:09:53.436Z,59.77
2022-08-14T08:12:24.947Z,60.38
2022-08-14T08:15:07.058Z,59.74
2022-08-14T08:17:42.361Z,59.25
2022-08-14T08:20:15.823Z,58.34
2022-08-14T08:22:56.006Z,58.73
2022-08-14T08:25:27.652Z,58.56
2022-08-14T08:27:58.404Z,58.44
2022-08-14T08:30:24.998Z,57.60
2022-08-14T08:32:53.540Z,57.17
2022-08-14T08:35:23.442Z,56.28
2022-08-14T08:37:53.708Z,56.17
2022-08-14T08:40:42.216Z,55.14
2022-08-14T08:43:29.773Z,55.35
2022-08-14T08:46:18.648Z,54.71
2022-08-14T08:51:30.935Z,54.77
2022-08-14T08:54:01.309Z,54.83
2022-08-14T08:56:41.350Z,54.53
2022-08-14T08:59:34.282Z,53.98
2022-08-14T09:02:10.151Z,54.75
2022-08-14T09:04:45.561Z,54.18
2022-08-14T09:07:20.204Z,54.58
2022-08-14T09:09:54.059Z,54.04
2022-08-14T09:12:26.794Z,53.28
2022-08-14T09:14:54.626Z,53.24
2022-08-14T09:17:25.660Z,53.40
2022-08-14T09:19:53.581Z,53.39
2022-08-14T09:22:35.825Z,52.39
2022-08-14T09:25:08.259Z,52.37
2022-08-14T09:27:37.967Z,52.77
2022-08-14T09:30:31.074Z,52.08
2022-08-14T09:33:06.089Z,50.83
2022-08-14T09:35:44.199Z,51.61
2022-08-14T09:38:28.278Z,51.79
2022-08-14T09:41:23.273Z,51.95
2022-08-14T09:44:06.300Z,51.08
2022-08-14T09:46:34.466Z,51.09
2022-08-14T09:49:06.067Z,51.79
2022-08-14T09:51:45.197Z,50.77
2022-08-14T09:54:23.369Z,51.12
2022-08-14T09:56:56.683Z,51.12
2022-08-14T09:59:27.994Z,50.69
2022-08-14T10:01:57.063Z,50.60
2022-08-14T10:04:35.984Z,50.55
2022-08-14T10:07:05.529Z,50.06
2022-08-14T10:09:34.596Z,50.52
2022-08-14T10:12:04.212Z,49.61
2022-08-14T10:14:36.576Z,49.81
2022-08-14T10:17:06.962Z,49.67
2022-08-14T10:19:36.567Z,49.33
2022-08-14T10:23:12.554Z,49.06
2022-08-14T10:24:57.550Z,48.33
2022-08-14T10:27:27.085Z,48.38
2022-08-14T10:30:00.887Z,47.12
2022-08-14T10:32:36.524Z,47.70
2022-08-14T10:35:16.474Z,46.74
2022-08-14T10:37:49.462Z,47.07
2022-08-14T10:40:38.855Z,47.54
2022-08-14T10:43:27.624Z,46.71
2022-08-14T10:46:58.902Z,46.22
2022-08-14T10:48:57.913Z,44.72
2022-08-14T10:51:26.266Z,45.64
2022-08-14T10:53:57.335Z,45.31
2022-08-14T10:56:35.126Z,45.17
2022-08-14T10:59:08.141Z,46.65
2022-08-14T11:01:38.388Z,45.00
2022-08-14T11:04:20.152Z,45.27
2022-08-14T11:06:53.423Z,44.79
2022-08-14T11:09:20.045Z,44.06
2022-08-14T11:11:55.573Z,43.63
2022-08-14T11:14:23.064Z,43.57
2022-08-14T11:16:53.903Z,44.37
2022-08-14T11:19:25.019Z,43.19
2022-08-14T11:21:56.074Z,43.38
2022-08-14T11:24:55.008Z,43.36
2022-08-14T11:27:19.502Z,44.59
2022-08-14T11:29:48.222Z,44.43
2022-08-14T11:32:21.887Z,43.43
2022-08-14T11:34:48.798Z,43.23
2022-08-14T11:37:23.593Z,42.78
2022-08-14T11:39:55.906Z,43.31
2022-08-14T11:42:58.231Z,42.16
2022-08-14T11:45:17.146Z,42.03
2022-08-14T11:48:10.661Z,41.99
2022-08-14T11:50:37.328Z,41.92
2022-08-14T11:53:07.096Z,41.49
2022-08-14T11:55:38.117Z,41.25
2022-08-14T11:58:09.424Z,41.71
2022-08-14T12:00:48.379Z,41.23
2022-08-14T12:03:17.804Z,41.35
2022-08-14T12:05:49.140Z,40.76
2022-08-14T12:08:16.150Z,40.70
2022-08-14T12:10:57.508Z,40.22
2022-08-14T12:13:30.913Z,40.72
2022-08-14T12:16:01.102Z,40.03
2022-08-14T12:18:39.432Z,39.65
2022-08-14T12:21:21.466Z,39.11
2022-08-14T12:24:01.870Z,39.89
2022-08-14T12:26:39.883Z,38.28
2022-08-14T12:29:10.245Z,38.40
2022-08-14T12:31:46.726Z,38.74
2022-08-14T12:34:20.351Z,39.57
2022-08-14T12:36:49.894Z,38.71
2022-08-14T12:39:23.873Z,38.50
2022-08-14T12:41:57.002Z,38.98
2022-08-14T12:44:39.107Z,38.42
2022-08-14T12:47:15.270Z,38.90
2022-08-14T12:49:53.377Z,38.63
2022-08-14T12:52:41.697Z,37.88
2022-08-14T12:55:20.944Z,38.03
2022-08-14T12:57:53.348Z,37.82
2022-08-14T13:00:23.974Z,37.06
2022-08-14T13:02:55.417Z,37.39
2022-08-14T13:05:31.169Z,37.02
2022-08-14T13:07:59.486Z,36.21
2022-08-14T13:10:51.516Z,35.58
2022-08-14T13:13:17.310Z,35.78
2022-08-14T13:15:45.805Z,35.92
2022-08-14T13:18:14.544Z,36.71
2022-08-14T13:20:51.847Z,36.69
2022-08-14T13:23:32.168Z,36.48
2022-08-14T13:25:59.547Z,36.64
2022-08-14T13:28:32.996Z,36.06
2022-08-14T13:31:10.935Z,36.24
2022-08-14T13:33:38.062Z,35.77
2022-08-14T13:36:08.811Z,35.96
2022-08-14T13:38:35.315Z,36.61
2022-08-14T13:41:02.778Z,36.58
2022-08-14T13:43:31.658Z,37.20
2022-08-14T13:46:03.861Z,37.24
2022-08-14T13:48:33.071Z,36.94
2022-08-14T13:51:05.841Z,37.38
2022-08-14T13:53:52.602Z,36.74
2022-08-14T13:56:36.340Z,36.88
2022-08-14T13:59:04.601Z,36.57
2022-08-14T14:01:42.860Z,36.67
2022-08-14T14:04:19.279Z,37.79
2022-08-14T14:06:48.820Z,37.58
2022-08-14T14:09:20.749Z,37.88
2022-08-14T14:11:47.800Z,37.89
2022-08-14T14:14:44.832Z,37.59
2022-08-14T14:17:12.431Z,37.01
2022-08-14T14:19:41.335Z,37.26
2022-08-14T14:22:09.766Z,36.97
2022-08-14T14:24:36.729Z,36.19
2022-08-14T14:27:30.065Z,36.30
2022-08-14T14:29:55.721Z,35.86
2022-08-14T14:32:32.194Z,35.67
2022-08-14T14:35:02.706Z,35.78
2022-08-14T14:37:30.567Z,36.66
2022-08-14T14:40:54.291Z,36.92
2022-08-14T14:42:48.873Z,36.40
2022-08-14T14:45:22.185Z,36.26
2022-08-14T14:47:59.409Z,36.62
2022-08-14T14:50:26.501Z,36.06
2022-08-14T14:52:54.008Z,35.02
2022-08-14T14:55:59.562Z,35.96
2022-08-14T14:58:30.650Z,35.42
2022-08-14T15:01:03.516Z,35.57
2022-08-14T15:03:36.743Z,35.25
2022-08-14T15:06:03.945Z,35.30
2022-08-14T15:08:56.487Z,35.23
2022-08-14T15:11:19.847Z,35.52
2022-08-14T15:13:53.350Z,36.41
2022-08-14T15:16:20.461Z,35.47
2022-08-14T15:18:49.198Z,35.42
2022-08-14T15:21:15.956Z,34.86
2022-08-14T15:23:44.843Z,34.25
2022-08-14T15:26:30.870Z,34.51
2022-08-14T15:29:05.823Z,34.60
2022-08-14T15:31:36.270Z,34.41
2022-08-14T15:34:44.468Z,34.22
2022-08-14T15:37:02.000Z,34.34
2022-08-14T15:39:35.899Z,34.04
2022-08-14T15:42:15.643Z,34.06
2022-08-14T15:44:56.595Z,33.91
2022-08-14T15:47:28.412Z,34.81
2022-08-14T15:50:00.669Z,33.62
2022-08-14T15:52:32.688Z,33.20
2022-08-14T15:55:09.548Z,33.29
2022-08-14T15:57:36.971Z,32.54
2022-08-14T16:00:43.355Z,33.22
2022-08-14T16:03:15.621Z,32.37
2022-08-14T16:05:43.382Z,32.86
2022-08-14T16:08:27.023Z,32.80
2022-08-14T16:10:56.434Z,32.65
2022-08-14T16:13:41.431Z,32.93
2022-08-14T16:16:47.094Z,32.90
2022-08-14T16:19:15.889Z,32.91
2022-08-14T16:22:02.752Z,32.71
2022-08-14T16:24:33.236Z,32.89
2022-08-14T16:27:01.470Z,32.54
2022-08-14T16:29:31.038Z,33.00
2022-08-14T16:32:01.741Z,33.22
2022-08-14T16:34:50.104Z,32.94
2022-08-14T16:37:21.125Z,33.59
2022-08-14T16:39:49.432Z,33.67
2022-08-14T16:42:39.139Z,33.23
2022-08-14T16:45:11.490Z,33.69
2022-08-14T16:47:38.207Z,33.93
2022-08-14T16:50:10.472Z,33.68
2022-08-14T16:52:44.172Z,33.94
2022-08-14T16:55:13.962Z,34.14
2022-08-14T16:57:49.997Z,33.55
2022-08-14T17:00:28.508Z,33.95
2022-08-14T17:03:04.702Z,34.28
2022-08-14T17:05:41.598Z,34.05
2022-08-14T17:08:31.566Z,34.34
2022-08-14T17:10:57.221Z,34.41
2022-08-14T17:13:27.441Z,34.29
2022-08-14T17:16:25.439Z,33.92
2022-08-14T17:19:00.846Z,34.05
2022-08-14T17:21:38.214Z,33.91
2022-08-14T17:24:58.317Z,34.59
2022-08-14T17:27:04.474Z,34.60
2022-08-14T17:29:34.820Z,34.71
2022-08-14T17:32:22.480Z,35.03
2022-08-14T17:34:57.837Z,35.03
2022-08-14T17:37:34.319Z,35.16
2022-08-14T17:40:15.113Z,35.88
2022-08-14T17:42:45.684Z,36.01
2022-08-14T17:45:26.782Z,36.00
2022-08-14T17:47:56.958Z,36.65
2022-08-14T17:50:58.745Z,36.53
2022-08-14T17:53:25.722Z,36.96
2022-08-14T17:56:02.897Z,37.29
2022-08-14T17:58:38.725Z,38.25
2022-08-14T18:01:13.294Z,38.81
2022-08-14T18:03:50.180Z,39.53
2022-08-14T18:06:39.399Z,40.04
2022-08-14T18:09:24.639Z,41.69
2022-08-14T18:11:55.149Z,41.68
2022-08-14T18:14:32.251Z,41.21
2022-08-14T18:17:01.034Z,41.03
2022-08-14T18:19:30.021Z,40.57
2022-08-14T18:21:58.989Z,40.83
2022-08-14T18:24:30.322Z,41.49
2022-08-14T18:27:08.976Z,42.14
2022-08-14T18:29:42.702Z,43.37
2022-08-14T18:32:27.639Z,45.34
2022-08-14T18:35:11.039Z,45.15
2022-08-14T18:37:41.187Z,45.09
2022-08-14T18:40:17.637Z,45.22
2022-08-14T18:42:59.232Z,46.23
2022-08-14T18:45:32.996Z,46.31
2022-08-14T18:48:18.614Z,45.40
2022-08-14T18:51:02.269Z,45.25
2022-08-14T18:53:34.398Z,46.13
2022-08-14T18:56:09.636Z,46.79
2022-08-14T18:58:48.448Z,46.18
2022-08-14T19:01:26.520Z,46.34
2022-08-14T19:03:57.458Z,47.37
2022-08-14T19:06:42.821Z,47.86
2022-08-14T19:09:50.586Z,48.75
2022-08-14T19:12:56.536Z,49.47
2022-08-14T19:15:27.294Z,49.97
2022-08-14T19:18:13.881Z,49.51
2022-08-14T19:21:13.338Z,50.42
2022-08-14T19:23:42.688Z,50.86
2022-08-14T19:26:36.254Z,51.28
2022-08-14T19:29:37.724Z,52.27
2022-08-14T19:32:38.933Z,52.28
2022-08-14T19:35:49.645Z,52.82
2022-08-14T19:38:47.837Z,53.25
2022-08-14T19:41:21.037Z,54.15
2022-08-14T19:43:55.729Z,54.54
2022-08-14T19:46:39.114Z,54.33
2022-08-14T19:49:23.035Z,54.94
2022-08-14T19:51:50.121Z,54.65
2022-08-14T19:54:17.115Z,55.16
2022-08-14T19:56:45.709Z,55.30
2022-08-14T19:59:19.134Z,56.12
2022-08-14T20:01:51.132Z,56.10
2022-08-14T20:04:46.179Z,55.41
2022-08-14T20:07:27.394Z,56.23
2022-08-14T20:11:04.857Z,56.30
2022-08-14T20:13:14.005Z,56.26
2022-08-14T20:15:47.673Z,56.44
2022-08-14T20:18:45.873Z,56.81
2022-08-14T20:21:05.147Z,57.26
2022-08-14T20:23:38.463Z,57.50
2022-08-14T20:26:31.521Z,57.45
2022-08-14T20:29:04.639Z,57.24
2022-08-14T20:31:37.633Z,57.85
2022-08-14T20:34:18.957Z,58.06
2022-08-14T20:37:09.808Z,57.80
2022-08-14T20:39:54.407Z,58.59
2022-08-14T20:42:43.805Z,58.16
2022-08-14T20:45:21.480Z,58.36
2022-08-14T20:47:56.449Z,58.48
2022-08-14T20:50:28.749Z,58.09
2022-08-14T20:52:57.334Z,57.75
2022-08-14T20:55:27.585Z,57.86
2022-08-14T20:57:58.977Z,58.22
2022-08-14T21:00:51.672Z,58.74
2022-08-14T21:03:56.824Z,58.38
2022-08-14T21:07:22.899Z,58.88
2022-08-14T21:10:04.552Z,58.77
2022-08-14T21:12:33.688Z,59.07
2022-08-14T21:14:59.623Z,59.11
2022-08-14T21:17:27.124Z,59.74
2022-08-14T21:19:53.837Z,60.32
2022-08-14T21:22:20.271Z,61.18
2022-08-14T21:24:47.480Z,61.07
2022-08-14T21:27:21.986Z,60.79
2022-08-14T21:29:56.052Z,61.29
2022-08-14T21:32:35.045Z,61.35
2022-08-14T21:35:09.064Z,62.01
2022-08-14T21:37:43.657Z,61.59
2022-08-14T21:40:39.853Z,62.80
2022-08-14T21:43:00.950Z,63.59
2022-08-14T21:45:27.692Z,64.24
2022-08-14T21:47:56.339Z,64.16
2022-08-14T21:51:00.024Z,63.98
2022-08-14T21:53:10.527Z,64.29
2022-08-14T21:55:37.354Z,64.76
2022-08-14T21:58:53.150Z,65.49
2022-08-14T22:00:51.523Z,66.31
2022-08-14T22:03:23.425Z,67.17
2022-08-14T22:05:55.886Z,67.54
2022-08-14T22:08:26.547Z,68.67
2022-08-14T22:10:54.958Z,69.30
2022-08-14T22:13:24.618Z,68.76
2022-08-14T22:15:54.344Z,69.00
2022-08-14T22:18:25.467Z,68.83
2022-08-14T22:20:53.893Z,69.45
2022-08-14T22:23:23.810Z,70.42
2022-08-14T22:25:51.182Z,69.99
2022-08-14T22:28:25.168Z,69.43
2022-08-14T22:30:54.906Z,69.94
2022-08-14T22:33:26.600Z,69.76
2022-08-14T22:35:57.746Z,69.29
2022-08-14T22:38:36.417Z,69.29
2022-08-14T22:41:25.839Z,69.28
2022-08-14T22:43:53.675Z,69.96
2022-08-14T22:46:21.200Z,69.86
2022-08-14T22:48:49.174Z,69.29
2022-08-14T22:51:17.992Z,69.29
2022-08-14T22:53:48.455Z,69.78
2022-08-14T22:56:20.133Z,70.98
2022-08-14T22:58:53.857Z,71.71
2022-08-14T23:01:57.105Z,72.38
2022-08-14T23:04:35.308Z,72.78
2022-08-14T23:07:21.967Z,72.97
2022-08-14T23:09:57.614Z,74.71
2022-08-14T23:12:47.415Z,74.85
2022-08-14T23:15:23.592Z,74.77
2022-08-14T23:17:51.063Z,74.71
2022-08-14T23:20:21.266Z,74.47
2022-08-14T23:22:52.380Z,74.86
2022-08-14T23:25:56.903Z,75.19
2022-08-14T23:28:34.417Z,74.99
2022-08-14T23:30:55.347Z,75.71
2022-08-14T23:33:21.895Z,76.33
2022-08-14T23:35:58.846Z,76.73
2022-08-14T23:38:31.059Z,78.18
2022-08-14T23:40:58.804Z,77.95
2022-08-14T23:43:28.270Z,78.33
2022-08-14T23:45:57.854Z,78.57
2022-08-14T23:48:27.983Z,77.44
2022-08-14T23:50:55.155Z,78.36
2022-08-14T23:53:47.428Z,77.75
2022-08-14T23:56:30.412Z,76.63
2022-08-14T23:59:00.970Z,76.39
